createdAt,value
2018-06-19T00:01:26.555Z,22
2018-06-19T00:11:26.729Z,22
2018-06-19T00:21:27.966Z,22
2018-06-19T00:31:26.846Z,22
2018-06-19T00:41:27.315Z,22
2018-06-19T00:51:26.174Z,22
2018-06-19T01:01:30.987Z,22
2018-06-19T01:11:29.509Z,22
2018-06-19T01:21:29.094Z,22
2018-06-19T01:31:27.096Z,22
2018-06-19T01:41:27.329Z,22
2018-06-19T01:51:31.802Z,22
2018-06-19T02:01:26.864Z,22
2018-06-19T02:11:30.477Z,21
2018-06-19T02:21:29.097Z,21
2018-06-19T02:31:26.920Z,22
2018-06-19T02:41:26.773Z,22
2018-06-19T02:51:27.856Z,22
2018-06-19T03:01:34.875Z,22
2018-06-19T03:11:28.425Z,21
2018-06-19T03:21:27.053Z,22
2018-06-19T03:31:27.271Z,21
2018-06-19T03:41:26.670Z,22
2018-06-19T03:51:26.741Z,21
2018-06-19T04:01:26.632Z,21
2018-06-19T04:11:27.740Z,22
2018-06-19T04:21:26.897Z,22
2018-06-19T04:31:28.641Z,22
2018-06-19T04:41:26.515Z,22
2018-06-19T04:51:28.589Z,22
2018-06-19T05:01:26.899Z,22
2018-06-19T05:11:27.590Z,22
2018-06-19T05:21:29.373Z,22
2018-06-19T05:31:29.023Z,22
2018-06-19T05:41:27.357Z,22
2018-06-19T05:51:26.965Z,22
2018-06-19T06:01:27.941Z,22
2018-06-19T06:11:26.767Z,22
2018-06-19T06:21:27.691Z,22
2018-06-19T06:31:27.849Z,22
2018-06-19T06:41:26.931Z,22
2018-06-19T06:51:28.323Z,22
2018-06-19T07:01:27.435Z,23
2018-06-19T07:11:26.597Z,23
2018-06-19T07:21:27.298Z,23
2018-06-19T07:31:26.280Z,23
2018-06-19T07:41:26.121Z,23
2018-06-19T07:51:29.259Z,23
2018-06-19T08:01:30.524Z,23
2018-06-19T08:11:27.109Z,24
2018-06-19T08:21:26.183Z,23
2018-06-19T08:31:28.429Z,24
2018-06-19T08:41:26.309Z,24
2018-06-19T08:51:26.393Z,24
2018-06-19T09:01:26.559Z,24
2018-06-19T09:11:26.690Z,24
2018-06-19T09:21:28.062Z,25
2018-06-19T09:31:27.618Z,25
2018-06-19T09:41:26.585Z,25
2018-06-19T09:51:26.627Z,25
2018-06-19T10:01:26.812Z,25
2018-06-19T10:11:27.306Z,26
2018-06-19T10:21:27.035Z,26
2018-06-19T10:31:29.477Z,26
2018-06-19T10:41:27.516Z,26
2018-06-19T10:51:26.702Z,26
2018-06-19T11:01:27.219Z,26
2018-06-19T11:11:26.940Z,25
2018-06-19T11:21:29.163Z,25
2018-06-19T11:31:25.401Z,25
2018-06-19T11:41:28.329Z,25
2018-06-19T11:51:26.682Z,26
2018-06-19T12:01:26.212Z,26
2018-06-19T12:11:27.335Z,26
2018-06-19T12:21:26.001Z,25
2018-06-19T12:31:27.156Z,26
2018-06-19T12:41:27.237Z,26
2018-06-19T12:51:27.441Z,27
2018-06-19T13:01:26.246Z,26
2018-06-19T13:11:27.710Z,26
2018-06-19T13:21:29.986Z,27
2018-06-19T13:31:27.432Z,27
2018-06-19T13:41:27.722Z,27
2018-06-19T13:51:26.839Z,28
2018-06-19T14:01:29.158Z,27
2018-06-19T14:11:27.177Z,27
2018-06-19T14:21:26.818Z,28
2018-06-19T14:31:26.770Z,28
2018-06-19T14:41:26.945Z,27
2018-06-19T14:51:28.412Z,28
2018-06-19T15:01:26.228Z,28
2018-06-19T15:11:27.219Z,28
2018-06-19T15:21:26.354Z,28
2018-06-19T15:31:26.171Z,28
2018-06-19T15:41:28.719Z,28
2018-06-19T15:51:29.039Z,28
2018-06-19T16:01:27.276Z,28
2018-06-19T16:11:26.595Z,28
2018-06-19T16:21:27.101Z,28
2018-06-19T16:31:27.572Z,29
2018-06-19T16:41:27.691Z,29
2018-06-19T16:51:26.611Z,29
2018-06-19T17:01:30.146Z,28
2018-06-19T17:11:27.077Z,28
2018-06-19T17:21:27.439Z,28
2018-06-19T17:31:26.760Z,28
2018-06-19T17:41:26.967Z,28
2018-06-19T17:51:26.951Z,28
2018-06-19T18:01:29.151Z,27
2018-06-19T18:11:27.889Z,27
2018-06-19T18:21:27.135Z,27
2018-06-19T18:31:28.211Z,26
2018-06-19T18:41:27.818Z,26
2018-06-19T18:51:37.973Z,26
2018-06-19T19:01:27.586Z,26
2018-06-19T19:11:26.772Z,26
2018-06-19T19:21:27.828Z,25
2018-06-19T19:31:27.082Z,25
2018-06-19T19:41:27.530Z,25
2018-06-19T19:51:26.460Z,25
2018-06-19T20:01:26.791Z,25
2018-06-19T20:11:27.061Z,25
2018-06-19T20:21:26.144Z,24
2018-06-19T20:31:26.995Z,24
2018-06-19T20:41:27.316Z,24
2018-06-19T20:51:26.317Z,24
2018-06-19T21:01:28.084Z,24
2018-06-19T21:11:27.235Z,24
2018-06-19T21:21:26.319Z,24
2018-06-19T21:31:26.092Z,23
2018-06-19T21:41:30.411Z,23
2018-06-19T21:51:27.656Z,23
2018-06-19T22:01:26.461Z,23
2018-06-19T22:11:28.877Z,23
2018-06-19T22:21:32.501Z,23
2018-06-19T22:31:26.647Z,22
2018-06-19T22:41:26.780Z,22
2018-06-19T22:51:26.277Z,22
2018-06-19T23:01:26.384Z,23
2018-06-19T23:11:26.143Z,22
2018-06-19T23:21:26.444Z,22
2018-06-19T23:31:26.148Z,22
2018-06-19T23:41:27.008Z,22
2018-06-19T23:51:26.904Z,22
